Time;durP1;ratioP1;P1;durP2;ratioP2;P2;SDS_P1;SDS_P2;PMS_P1;PMS_P2;Temp;Humidity;BMP_temperature;BMP_pressure;BME280_temperature;BME280_humidity;BME280_pressure;Samples;Min_cycle;Max_cycle;Signal;HPM_P1;HPM_P2
2022/04/26 03:37:13;;;;;;;38.83;21.83;;;;;;;4.25;100.00;99992.88;5076707;28;20082;-86
2022/04/26 03:39:42;;;;;;;43.75;22.42;;;;;;;4.21;100.00;99993.78;5057011;28;20032;-87
2022/04/26 03:42:08;;;;;;;39.17;21.65;;;;;;;4.18;100.00;99992.03;5057403;28;20089;-87
2022/04/26 03:44:33;;;;;;;38.38;22.77;;;;;;;4.23;100.00;100002.56;5075057;28;20020;-86
2022/04/26 03:46:59;;;;;;;39.55;22.77;;;;;;;4.16;100.00;99998.22;5056592;28;20023;-87
2022/04/26 03:49:24;;;;;;;43.78;22.00;;;;;;;4.12;100.00;99992.97;5057329;28;20032;-87
2022/04/26 03:51:52;;;;;;;39.42;22.27;;;;;;;4.11;100.00;100012.38;5074650;28;20052;-88
2022/04/26 03:54:24;;;;;;;40.33;22.48;;;;;;;4.06;100.00;100008.00;5056830;28;20032;-88
2022/04/26 03:56:49;;;;;;;38.80;22.75;;;;;;;4.06;100.00;99993.03;5074833;28;20427;-88
2022/04/26 03:59:16;;;;;;;42.00;22.70;;;;;;;4.00;100.00;100004.50;5057251;28;20478;-88
2022/04/26 04:01:41;;;;;;;43.88;23.13;;;;;;;4.02;100.00;100001.88;5056382;28;20111;-87
2022/04/26 04:04:07;;;;;;;43.05;22.90;;;;;;;3.96;100.00;100010.72;5056546;28;20161;-89
2022/04/26 04:06:32;;;;;;;45.20;24.35;;;;;;;3.91;100.00;100005.47;5056620;28;20169;-89
2022/04/26 04:09:00;;;;;;;48.42;24.73;;;;;;;3.84;100.00;100006.38;5074176;28;20025;-87
2022/04/26 04:11:26;;;;;;;47.72;24.60;;;;;;;3.83;100.00;100009.94;5055112;28;20517;-89
2022/04/26 04:13:51;;;;;;;45.97;23.35;;;;;;;3.76;100.00;100008.22;5056141;28;20059;-88
2022/04/26 04:16:17;;;;;;;47.63;24.50;;;;;;;3.73;100.00;100010.88;5056238;28;20024;-89
2022/04/26 04:21:27;;;;;;;45.33;23.60;;;;;;;3.65;100.00;100013.56;5074820;28;20088;-90
2022/04/26 04:23:52;;;;;;;46.35;23.15;;;;;;;3.72;100.00;100015.25;5056187;28;20401;-85
2022/04/26 04:26:17;;;;;;;43.10;21.63;;;;;;;3.79;100.00;100010.81;5057213;28;20033;-88
2022/04/26 04:28:43;;;;;;;41.83;22.42;;;;;;;3.76;100.00;100014.34;5056529;28;20020;-88
2022/04/26 04:31:12;;;;;;;40.42;20.85;;;;;;;3.78;100.00;100014.34;5056979;28;20075;-88
2022/04/26 04:33:39;;;;;;;37.58;21.05;;;;;;;3.79;100.00;100016.97;5081611;28;20027;-87
2022/04/26 04:36:04;;;;;;;38.95;20.27;;;;;;;3.77;100.00;100021.41;5062188;28;20025;-87
2022/04/26 04:38:33;;;;;;;34.50;19.02;;;;;;;3.78;100.00;100019.63;5061677;28;20028;-87
2022/04/26 04:40:58;;;;;;;37.70;20.27;;;;;;;3.75;100.00;100024.94;5056643;28;20027;-86
2022/04/26 04:43:36;;;;;;;39.85;20.83;;;;;;;3.79;100.00;100031.94;5057095;28;20115;-87
2022/04/26 04:46:01;;;;;;;35.40;20.05;;;;;;;3.80;100.00;100034.59;5055432;28;20020;-88
2022/04/26 04:48:27;;;;;;;37.78;20.00;;;;;;;3.82;100.00;100037.22;5073533;28;20036;-86
2022/04/26 04:50:52;;;;;;;36.95;20.80;;;;;;;3.79;100.00;100038.09;5055517;28;20078;-86
2022/04/26 04:53:19;;;;;;;34.78;20.05;;;;;;;3.81;100.00;100035.47;5074126;28;20023;-88
2022/04/26 04:55:44;;;;;;;40.45;21.17;;;;;;;3.88;100.00;100037.19;5056192;28;20405;-87
2022/04/26 04:58:09;;;;;;;36.78;20.88;;;;;;;3.90;100.00;100034.53;5056823;28;20024;-88
2022/04/26 05:00:35;;;;;;;34.38;20.75;;;;;;;3.89;100.00;100038.94;5056355;28;20477;-88
2022/04/26 05:03:00;;;;;;;38.30;20.58;;;;;;;3.93;100.00;100033.63;5055763;28;20119;-87
2022/04/26 05:05:26;;;;;;;40.20;21.00;;;;;;;3.95;100.00;100043.28;5058308;28;20078;-90
2022/04/26 05:07:52;;;;;;;35.03;20.65;;;;;;;4.01;100.00;100043.28;5073686;28;20110;-89
2022/04/26 05:10:18;;;;;;;45.28;25.05;;;;;;;4.06;100.00;100039.72;5073857;28;20024;-90
2022/04/26 05:12:43;;;;;;;52.03;26.90;;;;;;;4.16;100.00;100045.78;5056176;28;20504;-87
2022/04/26 05:15:09;;;;;;;48.05;25.70;;;;;;;4.21;100.00;100041.34;5055463;28;20028;-88
2022/04/26 05:17:34;;;;;;;44.35;23.80;;;;;;;4.25;100.00;100040.47;5073474;28;20035;-88
2022/04/26 05:20:00;;;;;;;44.05;21.90;;;;;;;4.30;100.00;100045.72;5056495;28;20033;-86
2022/04/26 05:22:26;;;;;;;37.60;21.80;;;;;;;4.34;100.00;100050.06;5055353;28;20043;-87
2022/04/26 05:24:56;;;;;;;42.20;22.52;;;;;;;4.39;100.00;100047.38;5055464;28;20481;-88
2022/04/26 05:27:30;;;;;;;39.40;21.30;;;;;;;4.40;100.00;100057.97;5054993;28;20393;-87
2022/04/26 05:29:56;;;;;;;38.28;20.85;;;;;;;4.50;100.00;100061.41;5055240;28;20024;-87
2022/04/26 05:32:27;;;;;;;31.83;19.63;;;;;;;4.58;100.00;100056.06;5055170;28;20028;-85
2022/04/26 05:34:58;;;;;;;31.95;18.45;;;;;;;4.63;100.00;100058.66;5055045;28;20032;-87
2022/04/26 05:37:25;;;;;;;30.67;18.25;;;;;;;4.64;100.00;100057.78;5055174;28;20024;-86
2022/04/26 05:39:50;;;;;;;27.67;18.33;;;;;;;4.68;100.00;100064.78;5072889;28;20500;-86
2022/04/26 05:42:15;;;;;;;29.88;19.33;;;;;;;4.66;100.00;100066.56;5055571;28;20025;-86
2022/04/26 05:44:42;;;;;;;35.33;19.73;;;;;;;4.66;100.00;100062.16;5073063;28;20026;-86
2022/04/26 05:47:08;;;;;;;36.92;20.40;;;;;;;4.76;100.00;100068.22;5073101;28;20029;-87
2022/04/26 05:49:35;;;;;;;35.85;20.13;;;;;;;4.80;100.00;100067.28;5073121;28;20052;-86
2022/04/26 05:52:01;;;;;;;38.75;22.35;;;;;;;4.75;100.00;100069.09;5054983;28;20055;-86
2022/04/26 05:54:27;;;;;;;33.53;19.67;;;;;;;4.79;100.00;100070.81;5073495;28;20393;-87
2022/04/26 05:56:53;;;;;;;32.53;19.98;;;;;;;4.88;100.00;100069.00;5054798;28;20021;-87
2022/04/26 05:59:19;;;;;;;36.75;19.05;;;;;;;4.89;100.00;100068.09;5056601;28;20082;-86
2022/04/26 06:01:45;;;;;;;29.98;18.75;;;;;;;4.87;100.00;100069.91;5058516;28;20466;-87
2022/04/26 06:04:10;;;;;;;32.08;19.88;;;;;;;4.83;100.00;100069.03;5058287;28;20021;-87
2022/04/26 06:06:35;;;;;;;33.58;19.15;;;;;;;4.84;100.00;100077.84;5058236;28;20028;-86
2022/04/26 06:09:02;;;;;;;37.47;21.58;;;;;;;4.86;100.00;100076.06;5076284;28;20032;-85
2022/04/26 06:11:27;;;;;;;44.50;24.80;;;;;;;4.89;100.00;100073.41;5076118;28;20490;-87
2022/04/26 06:13:52;;;;;;;46.95;23.77;;;;;;;4.92;100.00;100073.38;5058033;28;20060;-86
2022/04/26 06:16:18;;;;;;;38.70;23.02;;;;;;;5.00;100.00;100082.09;5075947;28;20085;-86
2022/04/26 06:18:43;;;;;;;40.80;22.20;;;;;;;5.04;100.00;100080.31;5076504;28;20028;-86
2022/04/26 06:21:08;;;;;;;36.95;22.27;;;;;;;5.06;100.00;100085.56;5076397;28;20028;-87
2022/04/26 06:23:34;;;;;;;34.70;22.10;;;;;;;5.11;100.00;100081.09;5076112;28;20024;-87
2022/04/26 06:25:59;;;;;;;36.35;22.75;;;;;;;5.24;100.00;100079.19;5058564;28;20024;-87
2022/04/26 06:28:25;;;;;;;37.20;22.30;;;;;;;5.29;100.00;100079.13;5111886;22;20112;-84
2022/04/26 06:30:51;;;;;;;38.35;22.45;;;;;;;5.39;100.00;100079.91;5095714;28;20020;-84
2022/04/26 06:33:17;;;;;;;38.00;21.98;;;;;;;5.46;100.00;100082.47;5077614;28;20560;-82
2022/04/26 06:35:43;;;;;;;34.00;20.83;;;;;;;5.55;100.00;100078.84;5096666;28;20058;-84
2022/04/26 06:38:08;;;;;;;37.40;22.17;;;;;;;5.56;100.00;100082.38;5095376;28;20020;-82
2022/04/26 06:40:34;;;;;;;38.03;23.05;;;;;;;5.66;100.00;100085.78;5077261;28;20023;-83
2022/04/26 06:42:59;;;;;;;39.17;22.95;;;;;;;5.79;100.00;100089.13;5077309;28;20111;-83
2022/04/26 06:45:24;;;;;;;35.45;22.13;;;;;;;5.84;100.00;100083.78;5095628;28;20069;-82
2022/04/26 06:47:50;;;;;;;42.10;24.38;;;;;;;6.01;100.00;100088.81;5094954;28;20024;-83
2022/04/26 06:50:16;;;;;;;36.88;23.27;;;;;;;6.04;100.00;100092.31;5095430;28;20175;-83
2022/04/26 06:52:42;;;;;;;39.85;23.52;;;;;;;6.25;100.00;100089.41;5095175;28;20023;-83
2022/04/26 06:55:07;;;;;;;40.70;24.50;;;;;;;6.32;100.00;100092.81;5095544;28;20027;-83
2022/04/26 06:57:36;;;;;;;38.60;22.30;;;;;;;6.28;100.00;100094.66;5095237;28;20085;-82
2022/04/26 07:00:04;;;;;;;38.47;22.27;;;;;;;6.32;100.00;100095.47;5076878;28;20024;-83
2022/04/26 07:02:29;;;;;;;37.58;22.65;;;;;;;6.40;100.00;100103.31;5094980;28;20024;-82
2022/04/26 07:04:56;;;;;;;36.17;22.50;;;;;;;6.42;100.00;100097.09;5094660;28;20039;-82
2022/04/26 07:07:22;;;;;;;33.30;22.30;;;;;;;6.45;100.00;100099.69;5095227;28;20472;-82
2022/04/26 07:09:47;;;;;;;32.70;20.55;;;;;;;6.52;100.00;100099.63;5095261;28;20111;-82
2022/04/26 07:12:12;;;;;;;35.70;21.92;;;;;;;6.61;100.00;100095.91;5094717;28;20111;-83
2022/04/26 07:14:38;;;;;;;36.60;23.00;;;;;;;6.75;100.00;100103.66;5076436;28;20131;-82
2022/04/26 07:17:03;;;;;;;36.45;21.52;;;;;;;6.78;100.00;100101.81;5094530;28;20485;-83
2022/04/26 07:19:28;;;;;;;34.83;22.88;;;;;;;6.90;100.00;100102.50;5094685;28;20548;-82
2022/04/26 07:21:54;;;;;;;35.50;23.48;;;;;;;7.17;100.00;100110.88;5094807;28;20431;-82
2022/04/26 07:24:19;;;;;;;35.58;22.55;;;;;;;7.06;100.00;100108.41;5094611;28;20024;-82
2022/04/26 07:26:44;;;;;;;35.42;22.17;;;;;;;7.10;100.00;100115.44;5094203;28;20175;-83
2022/04/26 07:29:10;;;;;;;35.42;21.13;;;;;;;7.29;100.00;100109.78;5094567;28;20020;-82
2022/04/26 07:31:36;;;;;;;35.80;22.63;;;;;;;7.36;100.00;100115.84;5094114;28;20028;-82
2022/04/26 07:36:46;;;;;;;;;;;;;;;7.49;100.00;100117.34;5094586;28;20507;-84
2022/04/26 07:39:11;;;;;;;45.85;25.38;;;;;;;7.58;100.00;100112.72;5094170;28;19908;-82
2022/04/26 07:41:36;;;;;;;41.40;24.33;;;;;;;7.71;100.00;100116.91;5075347;28;20346;-82
2022/04/26 07:44:02;;;;;;;38.10;22.50;;;;;;;7.83;100.00;100120.22;5094632;28;20036;-82
2022/04/26 07:46:28;;;;;;;41.85;25.08;;;;;;;7.97;100.00;100116.38;5094203;28;20016;-82
2022/04/26 07:48:55;;;;;;;40.63;24.40;;;;;;;7.93;100.00;100126.22;5094410;28;20020;-82
2022/04/26 07:51:20;;;;;;;37.75;23.95;;;;;;;8.01;100.00;100123.38;5093649;28;20480;-82
2022/04/26 07:53:46;;;;;;;45.00;27.33;;;;;;;8.14;100.00;100129.31;5094026;28;20044;-82
2022/04/26 07:56:11;;;;;;;45.13;25.42;;;;;;;8.23;100.00;100120.22;5093727;28;20023;-82
2022/04/26 07:58:36;;;;;;;43.53;25.40;;;;;;;8.38;100.00;100126.97;5094032;28;20030;-82
2022/04/26 08:01:03;;;;;;;54.97;30.83;;;;;;;8.67;100.00;100128.09;5093499;28;20034;-82
2022/04/26 08:03:29;;;;;;;45.17;26.92;;;;;;;8.75;100.00;100133.22;5092702;28;20078;-82
2022/04/26 08:05:54;;;;;;;46.38;26.92;;;;;;;8.74;100.00;100128.81;5093332;28;20028;-82
2022/04/26 08:08:19;;;;;;;47.45;28.45;;;;;;;8.79;100.00;100142.88;5093519;28;20054;-82
2022/04/26 08:10:45;;;;;;;48.78;28.83;;;;;;;8.97;100.00;100142.47;5093728;28;20059;-82
2022/04/26 08:13:11;;;;;;;46.42;26.90;;;;;;;9.04;100.00;100146.72;5093603;28;20110;-82
2022/04/26 08:15:37;;;;;;;48.83;28.75;;;;;;;9.22;100.00;100141.81;5093909;28;20031;-82
2022/04/26 08:18:02;;;;;;;42.50;25.85;;;;;;;9.23;100.00;100147.09;5093844;28;20020;-82
2022/04/26 08:20:27;;;;;;;46.35;26.25;;;;;;;9.32;100.00;100146.00;5093901;28;20369;-82
2022/04/26 08:22:53;;;;;;;40.35;25.63;;;;;;;9.32;100.00;100153.09;5093141;28;20095;-82
2022/04/26 08:28:02;;;;;;;46.88;27.23;;;;;;;9.70;100.00;100153.81;5093626;28;20137;-82
2022/04/26 08:30:28;;;;;;;48.05;28.00;;;;;;;9.90;100.00;100159.47;5094389;28;20016;-82
2022/04/26 08:32:53;;;;;;;43.33;27.50;;;;;;;9.97;100.00;100160.19;5093155;28;20028;-83
2022/04/26 08:35:23;;;;;;;40.45;24.65;;;;;;;10.06;100.00;100158.13;5093290;28;20100;-82
2022/04/26 08:37:49;;;;;;;39.25;24.35;;;;;;;10.04;100.00;100167.09;5093577;28;20050;-82
2022/04/26 08:40:15;;;;;;;38.55;24.60;;;;;;;10.17;100.00;100163.16;5075568;28;20065;-82
2022/04/26 08:42:46;;;;;;;41.00;23.98;;;;;;;10.31;100.00;100177.84;5074918;28;20481;-82
2022/04/26 08:45:17;;;;;;;39.80;23.73;;;;;;;10.28;100.00;100169.94;5093267;28;20058;-82
2022/04/26 08:53:16;;;;;;;39.15;24.02;;;;;;;10.72;100.00;100171.28;5093817;28;20024;-82
2022/04/26 08:55:43;;;;;;;36.80;23.50;;;;;;;10.82;100.00;100178.03;5093348;28;20528;-82
2022/04/26 08:58:11;;;;;;;36.10;23.67;;;;;;;10.97;100.00;100178.47;5093034;28;20384;-82
2022/04/26 09:00:39;;;;;;;37.50;24.33;;;;;;;11.01;100.00;100182.78;5093357;28;20112;-82
2022/04/26 09:03:07;;;;;;;37.67;23.27;;;;;;;11.11;100.00;100182.47;5093177;28;20020;-81
2022/04/26 09:05:33;;;;;;;36.00;24.27;;;;;;;10.92;100.00;100183.09;5093343;28;20032;-82
2022/04/26 09:07:59;;;;;;;34.78;23.48;;;;;;;10.73;100.00;100189.91;5093496;28;20028;-83
2022/04/26 09:10:26;;;;;;;38.95;26.20;;;;;;;11.02;100.00;100184.53;5092917;28;20047;-82
2022/04/26 09:13:15;;;;;;;40.60;27.27;;;;;;;11.37;100.00;100194.06;5092691;28;20396;-82
2022/04/26 09:15:44;;;;;;;34.33;22.70;;;;;;;11.51;100.00;100191.78;5092620;28;20052;-82
2022/04/26 09:18:21;;;;;;;33.33;21.42;;;;;;;11.60;100.00;100200.38;5093069;28;20032;-83
2022/04/26 09:21:04;;;;;;;30.15;21.48;;;;;;;11.87;100.00;100197.66;5075152;28;20024;-83
2022/04/26 09:23:30;;;;;;;33.58;23.17;;;;;;;12.45;100.00;100191.94;5092951;28;20385;-82
2022/04/26 09:25:58;;;;;;;33.38;22.23;;;;;;;12.35;100.00;100200.34;5092986;28;20031;-82
2022/04/26 09:28:26;;;;;;;30.00;21.48;;;;;;;12.28;100.00;100206.88;5093553;28;20499;-83
2022/04/26 09:30:52;;;;;;;33.45;21.90;;;;;;;12.82;100.00;100206.56;5093344;28;20024;-82
2022/04/26 09:33:33;;;;;;;27.98;19.48;;;;;;;12.76;100.00;100212.16;5093016;28;20029;-81
2022/04/26 09:36:03;;;;;;;28.58;19.63;;;;;;;12.80;100.00;100210.22;5096805;28;20043;-82
2022/04/26 09:38:33;;;;;;;26.10;19.00;;;;;;;12.58;100.00;100214.63;5096518;28;20027;-82
2022/04/26 09:41:09;;;;;;;25.80;18.65;;;;;;;12.33;100.00;100215.59;5097100;28;20177;-82
2022/04/26 09:43:35;;;;;;;27.98;20.50;;;;;;;11.96;100.00;100217.84;5096892;28;20047;-82
2022/04/26 09:46:00;;;;;;;32.80;21.33;;;;;;;11.71;100.00;100214.25;5096810;28;20016;-82
2022/04/26 09:48:26;;;;;;;30.67;21.02;;;;;;;11.82;100.00;100226.38;5096635;28;20028;-83
2022/04/26 09:50:52;;;;;;;28.20;20.90;;;;;;;11.70;100.00;100219.69;5096600;28;20023;-82
2022/04/26 09:53:17;;;;;;;35.33;23.42;;;;;;;11.93;100.00;100217.97;5078403;28;20078;-82
2022/04/26 09:55:43;;;;;;;31.15;22.30;;;;;;;11.71;100.00;100224.09;5096663;28;20032;-82
2022/04/26 09:58:10;;;;;;;31.13;21.83;;;;;;;12.12;100.00;100228.84;5095982;28;20099;-81
2022/04/26 10:00:36;;;;;;;34.95;22.80;;;;;;;12.59;100.00;100227.09;5096730;28;20026;-82
2022/04/26 10:03:06;;;;;;;33.67;22.77;;;;;;;12.95;100.00;100227.50;5096722;28;20023;-82
2022/04/26 10:05:38;;;;;;;31.42;21.05;;;;;;;13.11;100.00;100224.16;5078569;28;20035;-82
2022/04/26 10:08:05;;;;;;;26.92;19.75;;;;;;;13.22;100.00;100231.78;5096999;28;20115;-82
2022/04/26 10:10:30;;;;;;;27.52;19.05;;;;;;;13.44;100.00;100229.03;5096023;28;20107;-81
2022/04/26 10:15:41;;;;;;;25.30;18.80;;;;;;;14.27;100.00;100227.22;5096466;28;20119;-82
2022/04/26 10:18:27;;;;;;;27.25;18.55;;;;;;;13.98;100.00;100227.63;5096480;28;20474;-82
2022/04/26 10:20:53;;;;;;;25.00;17.88;;;;;;;13.24;100.00;100233.44;5096490;28;20031;-82
2022/04/26 10:23:18;;;;;;;23.73;17.15;;;;;;;13.04;100.00;100243.19;5096329;28;20026;-81
2022/04/26 10:26:22;;;;;;;25.30;16.92;;;;;;;12.99;100.00;100241.66;5097174;28;20077;-81
2022/04/26 10:29:02;;;;;;;25.85;17.70;;;;;;;12.53;100.00;100243.41;5096031;28;20044;-82
2022/04/26 10:31:37;;;;;;;22.13;16.42;;;;;;;12.48;100.00;100240.03;5096218;28;20056;-82
2022/04/26 10:34:29;;;;;;;22.10;15.73;;;;;;;12.43;100.00;100236.66;5077939;28;20131;-81
2022/04/26 10:37:02;;;;;;;26.20;18.25;;;;;;;12.78;100.00;100247.78;5095183;28;20059;-82
2022/04/26 10:39:27;;;;;;;24.13;15.90;;;;;;;12.37;100.00;100249.34;5096198;28;20097;-81
2022/04/26 10:41:54;;;;;;;23.70;16.35;;;;;;;12.85;100.00;100248.44;5078817;28;20028;-82
2022/04/26 10:44:22;;;;;;;22.20;15.57;;;;;;;12.93;100.00;100245.44;5096591;28;20077;-80
2022/04/26 10:47:00;;;;;;;25.63;15.10;;;;;;;13.06;100.00;100243.13;5096408;28;20089;-82
2022/04/26 10:49:31;;;;;;;22.52;15.30;;;;;;;13.54;100.00;100247.41;5095006;28;20396;-82
2022/04/26 10:52:23;;;;;;;22.40;15.43;;;;;;;13.57;100.00;100250.88;5095894;28;20046;-82
2022/04/26 10:54:49;;;;;;;19.90;14.80;;;;;;;13.89;100.00;100247.69;5078340;28;20077;-81
2022/04/26 10:57:16;;;;;;;21.00;14.25;;;;;;;13.56;99.32;100258.94;5096013;28;20027;-81
2022/04/26 10:59:54;;;;;;;20.30;14.77;;;;;;;13.94;95.11;100252.88;5096156;28;20032;-82
2022/04/26 11:02:21;;;;;;;22.42;14.43;;;;;;;13.86;97.86;100250.53;5096255;28;20027;-81
2022/04/26 11:05:04;;;;;;;20.30;13.82;;;;;;;14.20;95.37;100248.09;5096326;28;20055;-82
2022/04/26 11:07:30;;;;;;;22.40;14.38;;;;;;;14.55;88.55;100254.59;5095641;28;20488;-82
2022/04/26 11:10:00;;;;;;;22.27;14.23;;;;;;;15.32;95.02;100261.69;5095644;28;20028;-82
2022/04/26 11:12:30;;;;;;;17.77;12.77;;;;;;;15.78;92.16;100265.66;5077748;28;20503;-82
2022/04/26 11:14:58;;;;;;;17.23;12.63;;;;;;;15.80;77.56;100274.50;5095214;28;20059;-82
2022/04/26 11:17:24;;;;;;;15.55;12.00;;;;;;;15.92;83.93;100257.75;5078067;28;20024;-82
2022/04/26 11:20:17;;;;;;;17.10;11.63;;;;;;;15.25;85.84;100256.66;5095930;28;20034;-82
2022/04/26 11:22:51;;;;;;;18.90;12.43;;;;;;;15.45;88.31;100257.44;5087454;28;20394;-82
2022/04/26 11:28:09;;;;;;;19.25;11.35;;;;;;;15.11;84.33;100264.50;5095287;28;20124;-80
2022/04/26 11:30:37;;;;;;;12.95;10.25;;;;;;;14.78;85.90;100256.19;5096831;28;20020;-81
2022/04/26 11:33:15;;;;;;;12.82;9.50;;;;;;;14.91;83.38;100266.38;5078269;28;20032;-81
2022/04/26 11:35:42;;;;;;;13.75;9.45;;;;;;;15.63;77.71;100265.50;5096537;28;20038;-83
2022/04/26 11:38:13;;;;;;;13.43;9.45;;;;;;;15.02;77.86;100265.84;5095449;28;20081;-82
2022/04/26 11:40:50;;;;;;;13.63;9.70;;;;;;;15.44;79.09;100261.06;5095073;28;20362;-82
2022/04/26 11:43:22;;;;;;;16.25;11.57;;;;;;;15.57;83.67;100265.81;5095664;28;20020;-81
2022/04/26 11:45:50;;;;;;;16.80;11.35;;;;;;;15.49;80.83;100264.41;5093395;28;20024;-83
2022/04/26 11:48:18;;;;;;;15.13;10.40;;;;;;;15.50;83.60;100262.59;5095164;28;20024;-81
2022/04/26 11:50:46;;;;;;;14.50;9.90;;;;;;;14.60;82.09;100263.31;5096175;28;20028;-82
2022/04/26 11:53:14;;;;;;;14.90;9.82;;;;;;;14.72;85.96;100265.41;5078341;28;20020;-82
2022/04/26 11:55:45;;;;;;;13.30;9.27;;;;;;;15.55;79.10;100270.41;5094948;28;20080;-82
2022/04/26 11:58:14;;;;;;;15.18;9.20;;;;;;;15.81;70.78;100277.16;5094511;28;20086;-82
2022/04/26 12:00:59;;;;;;;14.13;8.95;;;;;;;16.00;76.04;100268.09;5095918;28;20022;-82
2022/04/26 12:03:27;;;;;;;12.23;9.40;;;;;;;16.65;78.62;100273.63;5094643;28;20066;-83
2022/04/26 12:06:02;;;;;;;14.23;9.10;;;;;;;16.88;70.47;100270.59;5076649;28;20030;-83
2022/04/26 12:08:32;;;;;;;12.00;8.70;;;;;;;16.02;72.79;100268.88;5077361;28;20107;-84
2022/04/26 12:11:21;;;;;;;13.20;8.38;;;;;;;16.13;72.18;100267.47;5074220;28;20020;-83
2022/04/26 12:14:11;;;;;;;12.07;9.23;;;;;;;16.01;75.21;100266.25;5057177;28;20056;-81
2022/04/26 12:16:39;;;;;;;11.80;7.53;;;;;;;14.88;73.95;100270.09;5074319;28;20017;-83
2022/04/26 12:19:05;;;;;;;10.40;7.63;;;;;;;15.30;74.74;100264.47;5055949;28;20082;-83
2022/04/26 12:21:49;;;;;;;10.20;7.03;;;;;;;15.90;80.55;100262.31;5055951;28;20016;-83
2022/04/26 12:24:23;;;;;;;12.20;6.80;;;;;;;16.03;62.76;100267.91;5053857;28;20021;-83
2022/04/26 12:26:59;;;;;;;7.68;5.88;;;;;;;16.65;61.15;100260.13;5088913;28;20423;-82
2022/04/26 12:29:27;;;;;;;9.88;6.57;;;;;;;17.00;66.80;100269.88;5104898;22;20054;-77
2022/04/26 12:31:53;;;;;;;14.27;8.07;;;;;;;16.83;72.71;100260.94;5093305;28;20042;-77
2022/04/26 12:34:20;;;;;;;13.13;8.02;;;;;;;16.37;72.79;100264.38;5093215;28;20536;-77
2022/04/26 12:36:54;;;;;;;12.80;7.95;;;;;;;16.99;68.83;100254.66;5107519;28;20027;-77
2022/04/26 12:39:28;;;;;;;;;;;;;;;16.72;70.72;100252.59;5105515;22;20043;-85
2022/04/26 12:41:56;;;;;;;10.40;7.40;;;;;;;15.56;74.52;100250.63;5092986;28;20364;-85
2022/04/26 12:44:23;;;;;;;13.10;9.23;;;;;;;15.07;76.07;100251.25;5093021;28;20024;-84
2022/04/26 12:52:49;;;;;;;15.45;11.25;;;;;;;15.60;84.70;100250.41;5093569;28;20042;-86
2022/04/26 12:55:36;;;;;;;14.95;10.70;;;;;;;15.79;84.59;100253.94;5092894;28;20020;-84
2022/04/26 12:58:11;;;;;;;14.40;11.32;;;;;;;15.37;77.91;100254.28;5094224;28;20028;-87
2022/04/26 13:00:43;;;;;;;15.85;10.80;;;;;;;15.48;85.62;100253.72;5093954;28;20061;-85
2022/04/26 13:03:11;;;;;;;17.67;10.75;;;;;;;15.59;84.42;100255.88;5092325;28;20102;-85
2022/04/26 13:05:44;;;;;;;14.20;11.00;;;;;;;15.57;83.01;100255.06;5092799;28;20078;-85
2022/04/26 13:08:10;;;;;;;;;;;;;;;15.48;82.38;100251.03;5093917;28;20027;-85
2022/04/26 13:10:35;;;;;;;14.13;9.82;;;;;;;15.37;78.40;100255.16;5098447;28;19915;-84
2022/04/26 13:13:01;;;;;;;14.90;10.55;;;;;;;15.68;80.79;100254.50;5097883;28;20031;-85
2022/04/26 13:15:27;;;;;;;14.70;10.60;;;;;;;15.75;79.76;100258.59;5096526;28;20024;-86
2022/04/26 13:17:53;;;;;;;11.95;9.55;;;;;;;14.78;77.25;100260.69;5113731;28;20046;-83
2022/04/26 13:20:19;;;;;;;15.38;9.48;;;;;;;14.64;77.74;100254.16;5098248;28;20019;-83
2022/04/26 13:22:44;;;;;;;12.48;7.47;;;;;;;14.94;71.96;100247.41;5096198;28;20069;-84
2022/04/26 13:25:09;;;;;;;12.77;8.40;;;;;;;15.19;76.08;100248.88;5096293;28;20020;-85
2022/04/26 13:27:37;;;;;;;12.50;7.75;;;;;;;15.34;67.59;100254.41;5097754;28;20027;-85
2022/04/26 13:30:04;;;;;;;12.80;8.23;;;;;;;15.24;65.61;100259.41;5097476;28;20020;-85
2022/04/26 13:32:30;;;;;;;11.70;8.68;;;;;;;15.49;75.14;100247.38;5097554;28;20016;-86
2022/04/26 13:35:03;;;;;;;14.85;8.70;;;;;;;15.33;79.23;100250.00;5097465;28;20020;-85
2022/04/26 13:37:29;;;;;;;13.80;10.32;;;;;;;15.04;74.01;100253.19;5096168;28;20035;-88
2022/04/26 13:39:57;;;;;;;13.98;9.95;;;;;;;15.44;80.43;100244.06;5097445;28;20020;-84
2022/04/26 13:42:24;;;;;;;12.88;9.75;;;;;;;15.32;83.79;100242.88;5096059;28;20020;-85
2022/04/26 13:44:52;;;;;;;12.30;9.43;;;;;;;15.36;76.70;100242.63;5096014;28;20043;-90
2022/04/26 13:47:18;;;;;;;12.15;8.77;;;;;;;15.61;72.58;100253.97;5095633;28;20047;-89
2022/04/26 13:49:44;;;;;;;10.07;8.52;;;;;;;15.44;72.06;100253.00;5095683;28;20039;-86
2022/04/26 13:52:09;;;;;;;16.98;7.65;;;;;;;16.08;73.00;100249.72;5097998;28;20016;-92
2022/04/26 13:54:35;;;;;;;12.63;8.32;;;;;;;16.49;74.63;100247.53;5096001;28;20035;-88
2022/04/26 13:57:01;;;;;;;10.85;8.50;;;;;;;16.58;74.07;100251.53;5090975;28;20028;-87
2022/04/26 13:59:28;;;;;;;11.93;9.20;;;;;;;17.17;71.34;100246.47;5096467;28;20023;-87
2022/04/26 14:01:55;;;;;;;10.48;8.30;;;;;;;17.35;72.20;100259.84;5094580;28;20016;-88
2022/04/26 14:04:23;;;;;;;12.85;8.57;;;;;;;17.46;69.14;100259.22;5095103;28;20028;-87
2022/04/26 14:06:49;;;;;;;11.55;8.60;;;;;;;16.94;66.73;100259.44;5095271;28;20028;-88
2022/04/26 14:09:15;;;;;;;13.70;8.55;;;;;;;16.79;68.09;100256.69;5095656;28;20396;-88
2022/04/26 14:11:41;;;;;;;13.77;8.77;;;;;;;16.82;70.52;100261.91;5096840;28;20425;-87
2022/04/26 14:22:24;;;;;;;10.80;8.38;;;;;;;16.08;70.06;100270.41;5096779;28;20031;-88
2022/04/26 14:24:52;;;;;;;12.27;8.57;;;;;;;16.03;69.02;100269.75;5095899;28;20035;-87
2022/04/26 14:27:19;;;;;;;10.00;8.20;;;;;;;15.88;67.59;100274.13;5095000;28;20024;-88
2022/04/26 14:29:44;;;;;;;11.20;9.50;;;;;;;15.04;72.76;100266.66;5095215;28;20035;-88
2022/04/26 14:32:09;;;;;;;13.07;9.95;;;;;;;14.41;77.70;100267.75;5095083;28;20020;-86
2022/04/26 14:34:36;;;;;;;13.10;9.57;;;;;;;15.08;78.12;100268.22;5094759;28;20081;-85
2022/04/26 14:37:03;;;;;;;11.40;8.48;;;;;;;15.77;73.63;100272.00;5094705;28;20493;-87
2022/04/26 14:39:29;;;;;;;12.90;8.95;;;;;;;16.29;70.02;100265.66;5095132;28;20016;-87
2022/04/26 14:41:56;;;;;;;12.27;8.93;;;;;;;16.64;71.65;100264.69;5095949;28;20028;-87
2022/04/26 14:44:21;;;;;;;12.70;9.02;;;;;;;17.05;70.27;100267.81;5096099;28;20024;-87
2022/04/26 14:46:47;;;;;;;12.90;8.45;;;;;;;17.22;68.18;100267.78;5094948;28;20020;-87
2022/04/26 14:49:12;;;;;;;10.32;7.65;;;;;;;17.47;65.24;100269.91;5094681;28;20468;-85
2022/04/26 14:51:37;;;;;;;14.60;9.38;;;;;;;17.12;69.51;100271.00;5095747;28;20026;-87
2022/04/26 14:54:03;;;;;;;13.15;8.75;;;;;;;17.35;66.80;100276.03;5094364;28;20028;-87
2022/04/26 14:56:31;;;;;;;12.00;9.02;;;;;;;16.92;66.68;100275.72;5095956;28;20019;-88
2022/04/26 14:59:00;;;;;;;15.85;9.20;;;;;;;16.27;71.85;100274.78;5094124;28;20036;-87
2022/04/26 15:01:30;;;;;;;14.75;9.60;;;;;;;16.02;75.78;100287.75;5094236;28;20028;-87
2022/04/26 15:03:56;;;;;;;12.98;9.07;;;;;;;15.82;73.47;100275.34;5094800;28;20023;-87
2022/04/26 15:06:21;;;;;;;13.82;9.77;;;;;;;16.08;71.43;100275.81;5077565;28;20028;-87
2022/04/26 15:11:31;;;;;;;14.98;9.05;;;;;;;15.85;69.95;100277.84;5095474;28;20067;-87
2022/04/26 15:16:42;;;;;;;12.35;9.02;;;;;;;15.82;71.54;100278.03;5096026;28;20031;-87
2022/04/26 15:19:11;;;;;;;13.90;9.43;;;;;;;15.20;71.77;100282.91;5093922;28;20020;-87
2022/04/26 15:21:38;;;;;;;13.68;9.13;;;;;;;14.90;74.45;100281.63;5093667;28;20024;-87
2022/04/26 15:24:04;;;;;;;16.48;9.18;;;;;;;15.08;73.43;100282.56;5093741;28;20122;-87
2022/04/26 15:26:30;;;;;;;13.10;9.60;;;;;;;15.38;68.86;100283.81;5093885;28;20047;-86
2022/04/26 15:28:57;;;;;;;12.70;9.10;;;;;;;15.10;72.37;100281.63;5093672;28;20459;-87
2022/04/26 15:31:23;;;;;;;11.10;8.93;;;;;;;15.59;72.45;100285.47;5092347;28;20032;-86